CheckWX is a tool to help pilots better visualize weather data.  It is not intended as a substitute for an official pre-flight weather briefing.

11:22:11 UTC

KEDN METAR
Enterprise Municipal Airport
Enterprise, Alabama, USA
Current

27 mins ago

KEDN 261055Z AUTO 00000KT 10SM CLR 02/02 A3013 RMK AO2 T00160016
Observed
Jan-26 @ 10:55 UTC
Visibility
10 SM
Flight Rules
VFR
Cloud Levels
  • Clear skies
Temperature
C / 36°F
Dewpoint
C / 36°F
Humidity
100%
Altimeter
30.13" Hg
Pressure
1020.32 hPa
Previous

47 mins ago

KEDN 261035Z AUTO 00000KT 10SM CLR 02/02 A3013 RMK AO2 T00200020
Observed
Jan-26 @ 10:35 UTC
Visibility
10 SM
Flight Rules
VFR
Cloud Levels
  • Clear skies
Temperature
C / 36°F
Dewpoint
C / 36°F
Humidity
100%
Altimeter
30.13" Hg
Pressure
1020.32 hPa
Previous

1 hour ago

KEDN 261015Z AUTO 00000KT 10SM CLR 02/02 A3012 RMK AO2 T00200020
Observed
Jan-26 @ 10:15 UTC
Visibility
10 SM
Flight Rules
VFR
Cloud Levels
  • Clear skies
Temperature
C / 36°F
Dewpoint
C / 36°F
Humidity
100%
Altimeter
30.12" Hg
Pressure
1020.02 hPa